Airfield :
LOGIN :

Register | Disclaimer

   EN    FR    IT 

 










Legend :    VFR   Marginal VFR   IFR   Intensive IFR   Very Intensive IFR
Visi :
Ceiling :
>= 8 km
>= 3000ft
5 to 8 km
1000 to 3000 ft
1500m to 5 km
500 to 1000 ft
800 to 1500m
200 to 500 ft
< 800m
< 200 ft
Symbols :   Thunderstorms  Fog  Heavy snow  Heavy precipitations  Wind > 20 kt
SIGMETs :     Misc.  Thunderstorms  Icing  Turbulence  Mountain Waves  Volcanic Ashes







- Airport Elevation : 121 ft
- IATA code : HUY
- Download approach charts


EGNJ - Humberside

CURRENT METAR :
  • 192220Z AUTO 09006KT 5000 BR OVC002/// 10/10 Q1012

EXPIRED METARs :
  • 192150Z AUTO 06005KT 4600 BR BKN003/// 10/10 Q1012
  • 192120Z AUTO 06004KT 5000 BR FEW004/// 10/10 Q1012
  • 192050Z 09004KT 5000 BR SCT030 11/10 Q1012
  • 192020Z 07003KT 6000 SCT030 11/10 Q1011
  • 191950Z 07004KT 6000 SCT030 12/11 Q1011

TAF AMD TAF EGNJ
Valid from the 19 at 22:00 until the 20 at 06:00 UTC


192231Z 1922/2006 04006KT 4000 HZ SCT030
TEMPO 1922/2006 2000 BR BKN002
PROB30 1922/2006 0300 FG BKN001
ATIS : +44 1652 682 020
No reported NOTAMs for that airfield.



MET'MAP, your aeronautical weather chart ! - Copyright ORBIFLY December 2007 - Disclaimer

ORBIFLY MET'MAP TEAM :

Programming & Development : Alexandra Zaïnal
Concept & Development : Baudouin d'Aumeries
Co-Development & Prog : Marc-Olivier Méhu
Technical & hardware support : Manuel Goepfert

Contact : metmap@orbifly.com




SOURCES & CREDITS :

   NOAA